Time;durP1;ratioP1;P1;durP2;ratioP2;P2;SDS_P1;SDS_P2;PMS_P1;PMS_P2;Temp;Humidity;BMP_temperature;BMP_pressure;BME280_temperature;BME280_humidity;BME280_pressure;Samples;Min_cycle;Max_cycle;Signal;HPM_P1;HPM_P2
2021/06/23 00:00:28;;;;;;;8.03;7.23;;;16.90;99.90;;;;;;2107327;28;20670;-75
2021/06/23 00:01:29;;;;;;;10.33;8.63;;;16.90;99.90;;;;;;2098424;28;20183;-75
2021/06/23 00:02:30;;;;;;;12.03;8.87;;;16.80;99.90;;;;;;2097943;28;20428;-75
2021/06/23 00:03:31;;;;;;;10.70;9.30;;;16.80;99.90;;;;;;2098489;28;20418;-75
2021/06/23 00:04:31;;;;;;;8.87;7.70;;;16.80;99.90;;;;;;2107214;28;20186;-75
2021/06/23 00:05:32;;;;;;;9.33;7.30;;;16.70;99.90;;;;;;2107467;28;20182;-73
2021/06/23 00:06:33;;;;;;;9.37;7.57;;;16.70;99.90;;;;;;2107379;28;20299;-74
2021/06/23 00:07:33;;;;;;;9.83;8.83;;;16.70;99.90;;;;;;2098092;28;20187;-74
2021/06/23 00:08:35;;;;;;;9.87;8.53;;;16.70;99.90;;;;;;2098286;28;20546;-75
2021/06/23 00:09:36;;;;;;;16.10;10.30;;;16.70;99.90;;;;;;2106728;28;20210;-75
2021/06/23 00:10:36;;;;;;;9.50;8.33;;;16.70;99.90;;;;;;2107178;28;21010;-75
2021/06/23 00:11:49;;;;;;;9.23;8.23;;;16.70;99.90;;;;;;2107291;28;20194;-75
2021/06/23 00:12:50;;;;;;;10.90;9.00;;;16.70;99.90;;;;;;2098069;28;20176;-75
2021/06/23 00:13:51;;;;;;;13.90;10.03;;;16.70;99.90;;;;;;2098489;28;20842;-75
2021/06/23 00:14:52;;;;;;;10.33;8.27;;;16.70;99.90;;;;;;2098181;28;20526;-75
2021/06/23 00:15:52;;;;;;;11.50;8.80;;;16.60;99.90;;;;;;2098245;28;20631;-75
2021/06/23 00:16:53;;;;;;;11.03;8.80;;;16.60;99.90;;;;;;2106713;28;20190;-75
2021/06/23 00:17:54;;;;;;;10.13;8.60;;;16.60;99.90;;;;;;2107236;28;20210;-75
2021/06/23 00:18:54;;;;;;;9.23;8.30;;;16.60;99.90;;;;;;2098161;28;20176;-75
2021/06/23 00:19:55;;;;;;;8.87;7.97;;;16.60;99.90;;;;;;2098290;28;20190;-76
2021/06/23 00:20:56;;;;;;;9.67;8.67;;;16.60;99.90;;;;;;2098073;28;20187;-75
2021/06/23 00:21:57;;;;;;;9.70;8.47;;;16.60;99.90;;;;;;2098280;28;20172;-75
2021/06/23 00:22:57;;;;;;;10.43;8.47;;;16.50;99.90;;;;;;2107039;28;20175;-75
2021/06/23 00:23:58;;;;;;;12.17;8.60;;;16.50;99.90;;;;;;2107104;28;20197;-74
2021/06/23 00:24:59;;;;;;;12.17;8.60;;;16.60;99.90;;;;;;2098327;28;20176;-75
2021/06/23 00:26:00;;;;;;;8.33;7.07;;;16.60;99.90;;;;;;2098202;28;20696;-75
2021/06/23 00:27:01;;;;;;;8.37;7.57;;;16.60;99.90;;;;;;2106587;28;20175;-75
2021/06/23 00:28:02;;;;;;;11.63;9.93;;;16.50;99.90;;;;;;2098112;28;20172;-75
2021/06/23 00:29:04;;;;;;;10.00;8.93;;;16.50;99.90;;;;;;2098160;28;20186;-75
2021/06/23 00:30:06;;;;;;;9.75;8.55;;;16.50;99.90;;;;;;2107033;28;20473;-75
2021/06/23 00:31:07;;;;;;;9.73;8.18;;;16.50;99.90;;;;;;2098178;28;20179;-75
2021/06/23 00:32:20;;;;;;;10.97;8.77;;;16.50;99.90;;;;;;2098248;28;20199;-75
2021/06/23 00:33:22;;;;;;;9.68;7.68;;;16.50;99.90;;;;;;2098030;28;20178;-75
2021/06/23 00:34:26;;;;;;;9.20;8.18;;;16.50;99.90;;;;;;2090069;28;20177;-75
2021/06/23 00:35:27;;;;;;;8.45;7.55;;;16.50;99.90;;;;;;2098688;28;20674;-74
2021/06/23 00:36:28;;;;;;;11.07;9.33;;;16.50;99.90;;;;;;2098132;28;20172;-75
2021/06/23 00:37:29;;;;;;;10.13;6.93;;;16.50;99.90;;;;;;2097884;28;20209;-75
2021/06/23 00:38:29;;;;;;;9.50;8.40;;;16.50;99.90;;;;;;2106419;28;20309;-74
2021/06/23 00:39:31;;;;;;;7.23;6.10;;;16.50;99.90;;;;;;2106335;28;20253;-75
2021/06/23 00:40:32;;;;;;;9.73;7.40;;;16.50;99.90;;;;;;2097994;28;20175;-75
2021/06/23 00:41:34;;;;;;;8.13;7.33;;;16.50;99.90;;;;;;2097942;28;20920;-75
2021/06/23 00:42:35;;;;;;;7.60;6.33;;;16.50;99.90;;;;;;2097846;28;20588;-75
2021/06/23 00:43:36;;;;;;;10.93;7.00;;;16.40;99.90;;;;;;2097925;28;20433;-75
2021/06/23 00:44:42;;;;;;;7.33;6.63;;;16.40;99.90;;;;;;2097920;28;20213;-75
2021/06/23 00:45:45;;;;;;;7.00;6.30;;;16.40;99.90;;;;;;2090281;28;20165;-75
2021/06/23 00:46:46;;;;;;;8.23;6.87;;;16.40;99.90;;;;;;2098017;28;20428;-75
2021/06/23 00:47:48;;;;;;;6.50;5.90;;;16.30;99.90;;;;;;2090176;28;20466;-75
2021/06/23 00:48:56;;;;;;;9.57;7.40;;;16.20;99.90;;;;;;2090877;28;20551;-75
2021/06/23 00:49:58;;;;;;;9.27;5.23;;;16.10;99.90;;;;;;2100013;28;20455;-74
2021/06/23 00:51:01;;;;;;;7.28;5.82;;;16.10;99.90;;;;;;2106659;28;20466;-76
2021/06/23 00:52:03;;;;;;;5.13;4.43;;;16.10;99.90;;;;;;2107685;28;20181;-74
2021/06/23 00:53:04;;;;;;;7.00;4.33;;;16.10;99.90;;;;;;2099151;28;20944;-74
2021/06/23 00:54:11;;;;;;;6.53;4.87;;;16.10;99.90;;;;;;2091298;28;20423;-74
2021/06/23 00:55:22;;;;;;;4.30;3.90;;;16.10;99.90;;;;;;2090731;28;20164;-74
2021/06/23 00:56:32;;;;;;;6.40;5.47;;;16.10;99.90;;;;;;2091078;28;20438;-75
2021/06/23 00:57:34;;;;;;;5.00;4.53;;;16.10;99.90;;;;;;2100678;28;20199;-75
2021/06/23 00:58:35;;;;;;;5.87;4.40;;;16.10;99.90;;;;;;2097934;28;20463;-74
2021/06/23 00:59:37;;;;;;;6.05;5.15;;;16.10;99.90;;;;;;2097737;28;20442;-74
2021/06/23 01:00:38;;;;;;;4.80;4.30;;;16.00;99.90;;;;;;2098048;28;20646;-74
2021/06/23 01:01:42;;;;;;;6.87;4.80;;;16.00;99.90;;;;;;2098104;28;20187;-74
2021/06/23 01:02:43;;;;;;;5.83;4.67;;;16.00;99.90;;;;;;2098015;28;20418;-74
2021/06/23 01:03:45;;;;;;;4.23;3.83;;;16.10;99.90;;;;;;2098185;28;20424;-74
2021/06/23 01:04:48;;;;;;;6.03;4.70;;;16.10;99.90;;;;;;2098133;28;20172;-75
2021/06/23 01:05:49;;;;;;;9.30;5.07;;;16.10;99.90;;;;;;2090130;28;20243;-75
2021/06/23 01:06:49;;;;;;;4.60;4.20;;;16.00;99.90;;;;;;2089795;28;20744;-75
2021/06/23 01:07:50;;;;;;;5.73;5.23;;;16.00;99.90;;;;;;2098144;28;20525;-75
2021/06/23 01:08:52;;;;;;;5.33;4.13;;;16.00;99.90;;;;;;2097865;28;20180;-76
2021/06/23 01:09:56;;;;;;;6.75;4.97;;;15.90;99.90;;;;;;2089902;28;20179;-75
2021/06/23 01:10:56;;;;;;;7.95;4.93;;;16.00;99.90;;;;;;2098185;28;20168;-74
2021/06/23 01:12:23;;;;;;;4.43;4.03;;;16.00;99.90;;;;;;2097851;28;20168;-75
2021/06/23 01:13:38;;;;;;;5.07;4.68;;;16.00;99.90;;;;;;2098112;28;20172;-76
2021/06/23 01:14:42;;;;;;;4.60;4.20;;;16.00;99.90;;;;;;2098394;28;20592;-76
2021/06/23 01:15:47;;;;;;;6.25;4.15;;;15.90;99.90;;;;;;2097901;28;20174;-75
2021/06/23 01:16:48;;;;;;;4.97;4.07;;;16.00;99.90;;;;;;2082013;28;20181;-75
2021/06/23 01:17:50;;;;;;;5.27;4.77;;;15.90;99.90;;;;;;2089768;28;20219;-75
2021/06/23 01:18:51;;;;;;;5.90;4.65;;;15.90;99.90;;;;;;2089852;28;20173;-75
2021/06/23 01:20:07;;;;;;;5.18;4.68;;;16.00;99.90;;;;;;2081378;28;20186;-74
2021/06/23 01:21:08;;;;;;;5.80;4.97;;;15.90;99.90;;;;;;2091618;28;20164;-75
2021/06/23 01:22:15;;;;;;;5.90;5.40;;;15.90;99.90;;;;;;2089594;28;20188;-74
2021/06/23 01:23:16;;;;;;;5.82;5.10;;;15.90;99.90;;;;;;2090252;28;20175;-75
2021/06/23 01:24:17;;;;;;;4.73;4.30;;;15.80;99.90;;;;;;2097876;28;20666;-75
2021/06/23 01:25:18;;;;;;;5.67;4.73;;;15.80;99.90;;;;;;2098454;28;20432;-76
2021/06/23 01:26:19;;;;;;;4.97;4.43;;;15.80;99.90;;;;;;2098455;28;20180;-75
2021/06/23 01:27:19;;;;;;;6.57;4.80;;;15.80;99.90;;;;;;2097205;28;20184;-75
2021/06/23 01:28:20;;;;;;;5.03;4.53;;;15.80;99.90;;;;;;2095365;28;20260;-74
2021/06/23 01:29:21;;;;;;;5.43;4.93;;;15.80;99.90;;;;;;2089551;28;20651;-74
2021/06/23 01:30:22;;;;;;;5.00;4.60;;;15.80;99.90;;;;;;2097827;28;20258;-75
2021/06/23 01:31:22;;;;;;;5.00;4.50;;;15.80;99.90;;;;;;2098229;28;20187;-75
2021/06/23 01:32:23;;;;;;;4.80;4.40;;;15.80;99.90;;;;;;2098148;28;20733;-75
2021/06/23 01:33:26;;;;;;;5.73;5.03;;;15.80;99.90;;;;;;2098240;28;20183;-75
2021/06/23 01:34:27;;;;;;;5.88;4.53;;;15.80;99.90;;;;;;2098380;28;20638;-75
2021/06/23 01:35:30;;;;;;;6.20;5.70;;;15.80;99.90;;;;;;2098280;28;20195;-75
2021/06/23 01:36:31;;;;;;;5.65;5.15;;;15.80;99.90;;;;;;2097627;28;20175;-74
2021/06/23 01:37:31;;;;;;;6.90;5.67;;;15.80;99.90;;;;;;2097492;28;20202;-75
2021/06/23 01:38:32;;;;;;;7.50;5.40;;;15.80;99.90;;;;;;2098011;28;20234;-76
2021/06/23 01:39:33;;;;;;;6.60;6.00;;;15.80;99.90;;;;;;2098122;28;20168;-74
2021/06/23 01:40:33;;;;;;;5.93;5.43;;;15.70;99.90;;;;;;2098093;28;20413;-75
2021/06/23 01:41:34;;;;;;;5.80;5.30;;;15.70;99.90;;;;;;2097619;28;20577;-74
2021/06/23 01:42:35;;;;;;;5.97;5.47;;;15.70;99.90;;;;;;2097262;28;20206;-74
2021/06/23 01:43:36;;;;;;;6.55;5.95;;;15.70;99.90;;;;;;2106145;28;20175;-74
2021/06/23 01:44:37;;;;;;;6.27;5.67;;;15.70;99.90;;;;;;2105948;28;20599;-76
2021/06/23 01:45:39;;;;;;;7.87;6.70;;;15.70;99.90;;;;;;2098159;28;20171;-74
2021/06/23 01:46:40;;;;;;;7.88;5.88;;;15.70;99.90;;;;;;2097540;28;20198;-74
2021/06/23 01:47:41;;;;;;;9.47;5.50;;;15.70;99.90;;;;;;2097337;28;20294;-75
2021/06/23 01:48:42;;;;;;;7.00;5.55;;;15.60;99.90;;;;;;2098145;28;20180;-75
2021/06/23 01:49:46;;;;;;;6.40;5.00;;;15.60;99.90;;;;;;2097542;28;20184;-74
2021/06/23 01:50:57;;;;;;;5.50;4.85;;;15.60;99.90;;;;;;2097536;28;20183;-74
2021/06/23 01:51:58;;;;;;;3.95;3.50;;;15.70;99.90;;;;;;2105946;28;20171;-74
2021/06/23 01:53:00;;;;;;;6.00;4.65;;;15.60;99.90;;;;;;2097253;28;20179;-73
2021/06/23 01:54:00;;;;;;;5.82;5.32;;;15.50;99.90;;;;;;2089370;28;20175;-74
2021/06/23 01:55:01;;;;;;;5.97;5.37;;;15.60;99.90;;;;;;2097520;28;20243;-75
2021/06/23 01:56:03;;;;;;;6.73;5.10;;;15.50;99.90;;;;;;2105760;28;20174;-75
2021/06/23 01:57:09;;;;;;;6.95;5.63;;;15.60;99.90;;;;;;2097298;28;20168;-75
2021/06/23 01:58:11;;;;;;;5.28;4.78;;;15.60;99.90;;;;;;2097512;28;20689;-74
2021/06/23 01:59:13;;;;;;;5.30;4.80;;;15.60;99.90;;;;;;2098099;28;20215;-74
2021/06/23 02:00:14;;;;;;;5.57;5.07;;;15.60;99.90;;;;;;2098062;28;20186;-75
2021/06/23 02:01:23;;;;;;;6.20;5.55;;;15.70;99.90;;;;;;2097266;28;20184;-75
2021/06/23 02:02:34;;;;;;;5.20;4.80;;;15.80;99.90;;;;;;2097445;28;20172;-74
2021/06/23 02:03:57;;;;;;;5.18;4.78;;;15.70;99.90;;;;;;2097429;28;20164;-75
2021/06/23 02:05:13;;;;;;;5.72;5.15;;;15.70;99.90;;;;;;2097555;28;20654;-75
2021/06/23 02:06:42;;;;;;;5.55;5.05;;;15.70;99.90;;;;;;2097609;28;20679;-75
2021/06/23 02:08:18;;;;;;;5.60;4.93;;;15.70;99.90;;;;;;2088665;28;20639;-77
2021/06/23 02:10:04;;;;;;;5.53;4.90;;;15.70;99.90;;;;;;2098013;28;20265;-74
2021/06/23 02:11:14;;;;;;;5.25;4.80;;;15.70;99.90;;;;;;2097180;28;20190;-75
2021/06/23 02:12:23;;;;;;;5.43;4.90;;;15.60;99.90;;;;;;2097970;28;20164;-76
2021/06/23 02:14:04;;;;;;;4.93;4.53;;;15.70;99.90;;;;;;2097192;28;20674;-75
2021/06/23 02:15:06;;;;;;;5.45;4.95;;;15.60;99.90;;;;;;2097774;28;20168;-76
2021/06/23 02:16:10;;;;;;;6.43;5.15;;;15.60;99.90;;;;;;2105763;28;20181;-76
2021/06/23 02:17:13;;;;;;;5.32;4.30;;;15.60;99.90;;;;;;2104996;28;20674;-76
2021/06/23 02:18:15;;;;;;;6.93;4.78;;;15.60;99.90;;;;;;2097170;28;20199;-75
2021/06/23 02:19:16;;;;;;;7.20;5.38;;;15.60;99.90;;;;;;2089016;28;20181;-76
2021/06/23 02:20:18;;;;;;;8.25;5.32;;;15.60;99.90;;;;;;2097212;28;20186;-76
2021/06/23 02:21:19;;;;;;;7.18;6.07;;;15.50;99.90;;;;;;2097204;28;20199;-76
2021/06/23 02:22:29;;;;;;;5.65;5.15;;;15.50;99.90;;;;;;2097083;28;20172;-76
2021/06/23 02:23:33;;;;;;;6.40;4.68;;;15.50;99.90;;;;;;2097275;28;20175;-76
2021/06/23 02:24:34;;;;;;;5.20;4.72;;;15.50;99.90;;;;;;2089476;28;20218;-76
2021/06/23 02:25:35;;;;;;;6.23;5.73;;;15.50;99.90;;;;;;2088949;28;20172;-76
2021/06/23 02:26:36;;;;;;;6.28;5.40;;;15.40;99.90;;;;;;2097101;28;20183;-76
2021/06/23 02:27:42;;;;;;;5.75;5.00;;;15.40;99.90;;;;;;2097273;28;20195;-76
2021/06/23 02:28:43;;;;;;;5.28;4.78;;;15.40;99.90;;;;;;2087362;28;20227;-76
2021/06/23 02:29:45;;;;;;;5.65;5.15;;;15.40;99.90;;;;;;2079772;28;20264;-76
2021/06/23 02:30:46;;;;;;;4.35;3.95;;;15.40;99.90;;;;;;2080821;28;20188;-77
2021/06/23 02:31:51;;;;;;;6.87;4.80;;;15.40;99.90;;;;;;2088907;28;20211;-76
2021/06/23 02:32:55;;;;;;;5.40;4.90;;;15.40;99.90;;;;;;2089271;28;20186;-76
2021/06/23 02:33:57;;;;;;;5.20;4.63;;;15.40;99.90;;;;;;2096867;28;20187;-76
2021/06/23 02:35:05;;;;;;;6.47;5.78;;;15.40;99.90;;;;;;2088968;28;20187;-76
2021/06/23 02:36:06;;;;;;;6.72;6.05;;;15.40;99.90;;;;;;2088992;28;20196;-76
2021/06/23 02:37:09;;;;;;;5.88;5.28;;;15.40;99.90;;;;;;2097066;28;20241;-76
2021/06/23 02:38:10;;;;;;;7.05;5.40;;;15.30;99.90;;;;;;2088922;28;20204;-76
2021/06/23 02:39:11;;;;;;;7.88;6.78;;;15.40;99.90;;;;;;2080650;28;20220;-77
2021/06/23 02:40:12;;;;;;;8.23;5.50;;;15.40;99.90;;;;;;2080860;28;20173;-76
2021/06/23 02:41:14;;;;;;;6.07;5.47;;;15.40;99.90;;;;;;2089027;28;20184;-77
2021/06/23 02:42:15;;;;;;;7.53;5.80;;;15.40;99.90;;;;;;2097103;28;20198;-76
2021/06/23 02:43:16;;;;;;;4.65;4.25;;;15.30;99.90;;;;;;2097152;28;20183;-76
2021/06/23 02:44:17;;;;;;;6.35;5.47;;;15.30;99.90;;;;;;2097203;28;20175;-76
2021/06/23 02:45:18;;;;;;;5.50;5.00;;;15.40;99.90;;;;;;2097300;28;20176;-76
2021/06/23 02:46:19;;;;;;;5.43;4.95;;;15.40;99.90;;;;;;2097245;28;20244;-76
2021/06/23 02:47:20;;;;;;;6.20;5.60;;;15.40;99.90;;;;;;2097197;28;20174;-76
2021/06/23 02:48:24;;;;;;;7.32;6.55;;;15.40;99.90;;;;;;2088842;28;20188;-76
2021/06/23 02:49:25;;;;;;;6.30;5.20;;;15.40;99.90;;;;;;2081180;28;20287;-77
2021/06/23 02:50:32;;;;;;;5.23;4.73;;;15.40;99.90;;;;;;2088899;28;20180;-76
2021/06/23 02:51:40;;;;;;;5.57;5.05;;;15.40;99.90;;;;;;2089377;28;20173;-75
2021/06/23 02:52:41;;;;;;;6.55;5.13;;;15.40;99.90;;;;;;2089122;28;20267;-76
2021/06/23 02:53:43;;;;;;;5.97;5.47;;;15.40;99.90;;;;;;2081124;28;20539;-76
2021/06/23 02:54:45;;;;;;;5.32;4.82;;;15.30;99.90;;;;;;2080679;28;20738;-76
2021/06/23 02:55:46;;;;;;;6.95;6.28;;;15.30;99.90;;;;;;2080858;28;20651;-76
2021/06/23 02:56:47;;;;;;;6.05;5.38;;;15.30;99.90;;;;;;2088894;28;20192;-76
2021/06/23 02:57:48;;;;;;;6.60;5.20;;;15.30;99.90;;;;;;2089613;28;20243;-76
2021/06/23 02:58:50;;;;;;;6.45;5.68;;;15.20;99.90;;;;;;2080516;28;20726;-76
2021/06/23 02:59:53;;;;;;;6.90;6.20;;;15.20;99.90;;;;;;2080788;28;20770;-77
2021/06/23 03:00:54;;;;;;;7.28;6.57;;;15.10;99.90;;;;;;2080669;28;20192;-76
2021/06/23 03:01:55;;;;;;;7.10;6.43;;;15.00;99.90;;;;;;2088773;28;20545;-76
2021/06/23 03:02:56;;;;;;;7.03;6.43;;;15.00;99.90;;;;;;2088995;28;20230;-76
2021/06/23 03:03:57;;;;;;;6.47;5.87;;;15.00;99.90;;;;;;2089454;28;20180;-76
2021/06/23 03:04:58;;;;;;;5.82;5.28;;;15.00;99.90;;;;;;2089242;28;20180;-76
2021/06/23 03:06:02;;;;;;;6.07;5.40;;;15.00;99.90;;;;;;2089388;28;20642;-77
2021/06/23 03:07:10;;;;;;;5.68;5.18;;;15.00;99.90;;;;;;2088692;28;20169;-77
2021/06/23 03:08:11;;;;;;;6.32;5.72;;;15.00;99.90;;;;;;2088643;28;20176;-77
2021/06/23 03:09:13;;;;;;;5.43;4.93;;;15.00;99.90;;;;;;2080630;28;20185;-76
2021/06/23 03:10:14;;;;;;;5.50;5.00;;;15.10;99.90;;;;;;2080594;28;20211;-76
2021/06/23 03:11:15;;;;;;;5.20;4.65;;;15.10;99.90;;;;;;2080731;28;20181;-77
2021/06/23 03:12:17;;;;;;;5.47;5.03;;;15.10;99.90;;;;;;2080555;28;20181;-77
2021/06/23 03:13:18;;;;;;;8.77;5.72;;;15.10;99.90;;;;;;2088661;28;20184;-76
2021/06/23 03:14:18;;;;;;;5.80;5.30;;;15.00;99.90;;;;;;2096717;28;20761;-77
2021/06/23 03:15:19;;;;;;;6.30;4.87;;;14.90;99.90;;;;;;2096796;28;20196;-76
2021/06/23 03:16:19;;;;;;;4.53;4.13;;;14.90;99.90;;;;;;2096800;28;20309;-77
2021/06/23 03:17:20;;;;;;;5.70;4.20;;;14.90;99.90;;;;;;2096670;28;20638;-77
2021/06/23 03:18:21;;;;;;;5.47;5.07;;;14.80;99.90;;;;;;2089043;28;20294;-77
2021/06/23 03:19:22;;;;;;;4.78;4.35;;;14.80;99.90;;;;;;2088322;28;20172;-77
2021/06/23 03:20:23;;;;;;;6.07;5.50;;;14.80;99.90;;;;;;2080318;28;20205;-76
2021/06/23 03:21:24;;;;;;;5.40;5.00;;;14.70;99.90;;;;;;2088440;28;20200;-76
2021/06/23 03:22:25;;;;;;;5.93;5.40;;;14.70;99.90;;;;;;2100003;28;20171;-76
2021/06/23 03:23:25;;;;;;;5.07;4.63;;;14.70;99.90;;;;;;2098378;28;20206;-76
2021/06/23 03:24:26;;;;;;;5.33;4.43;;;14.70;99.90;;;;;;2098377;28;20179;-76
2021/06/23 03:25:27;;;;;;;6.37;5.43;;;14.60;99.90;;;;;;2098391;28;20203;-76
2021/06/23 03:26:29;;;;;;;5.70;5.10;;;14.60;99.90;;;;;;2090161;28;20211;-76
2021/06/23 03:27:30;;;;;;;5.18;4.68;;;14.60;99.90;;;;;;2090094;28;20245;-76
2021/06/23 03:28:30;;;;;;;6.57;5.13;;;14.60;99.90;;;;;;2098301;28;20214;-76
2021/06/23 03:29:33;;;;;;;6.00;5.17;;;14.50;99.90;;;;;;2098274;28;20212;-76
2021/06/23 03:30:34;;;;;;;5.95;5.45;;;14.50;99.90;;;;;;2098054;28;20663;-76
2021/06/23 03:31:35;;;;;;;5.10;4.65;;;14.50;99.90;;;;;;2081752;28;20636;-76
2021/06/23 03:32:36;;;;;;;7.97;5.23;;;14.50;99.90;;;;;;2089862;28;20226;-76
2021/06/23 03:33:40;;;;;;;6.07;5.50;;;14.50;99.90;;;;;;2090675;28;20597;-77
2021/06/23 03:34:41;;;;;;;6.97;5.57;;;14.40;99.90;;;;;;2090067;28;20667;-76
2021/06/23 03:35:42;;;;;;;6.63;5.60;;;14.40;99.90;;;;;;2089936;28;20200;-76
2021/06/23 03:36:42;;;;;;;7.73;6.93;;;14.30;99.90;;;;;;2089944;28;20539;-76
2021/06/23 03:37:43;;;;;;;7.27;6.23;;;14.30;99.90;;;;;;2089891;28;20288;-76
2021/06/23 03:38:44;;;;;;;6.00;5.20;;;14.20;99.90;;;;;;2081825;28;20213;-76
2021/06/23 03:39:45;;;;;;;5.93;5.00;;;14.20;99.90;;;;;;2089926;28;20597;-76
2021/06/23 03:40:46;;;;;;;5.50;5.00;;;14.20;99.90;;;;;;2090571;28;20546;-76
2021/06/23 03:41:47;;;;;;;6.77;5.27;;;14.20;99.90;;;;;;2098175;28;20588;-76
2021/06/23 03:42:48;;;;;;;6.13;5.63;;;14.20;99.90;;;;;;2098074;28;20183;-76
2021/06/23 03:43:49;;;;;;;7.22;6.13;;;14.20;99.90;;;;;;2098224;28;20176;-76
2021/06/23 03:44:50;;;;;;;5.13;4.73;;;14.10;99.90;;;;;;2098267;28;20172;-76
2021/06/23 03:45:50;;;;;;;5.70;5.20;;;14.10;99.90;;;;;;2081636;28;20181;-75
2021/06/23 03:46:52;;;;;;;5.73;5.23;;;14.10;99.90;;;;;;2090011;28;20168;-76
2021/06/23 03:47:53;;;;;;;5.50;4.70;;;14.10;99.90;;;;;;2097973;28;20199;-75
2021/06/23 03:48:56;;;;;;;4.80;4.40;;;14.10;99.90;;;;;;2089981;28;20180;-76
2021/06/23 03:49:57;;;;;;;6.05;5.45;;;14.10;99.90;;;;;;2098212;28;20172;-75
2021/06/23 03:50:57;;;;;;;6.47;5.87;;;14.10;99.90;;;;;;2097804;28;20237;-76
2021/06/23 03:51:58;;;;;;;7.10;6.50;;;14.00;99.90;;;;;;2090038;28;20176;-76
2021/06/23 03:53:00;;;;;;;6.90;6.00;;;14.00;99.90;;;;;;2097859;28;20263;-76
2021/06/23 03:54:01;;;;;;;6.90;6.20;;;14.00;99.90;;;;;;2097944;28;20413;-76
2021/06/23 03:55:05;;;;;;;6.73;6.07;;;14.10;99.90;;;;;;2089832;28;20179;-76
2021/06/23 03:56:05;;;;;;;6.32;5.72;;;14.10;99.90;;;;;;2073612;28;20440;-76
2021/06/23 03:57:06;;;;;;;6.57;5.90;;;14.10;99.90;;;;;;2081496;28;20209;-76
2021/06/23 03:58:07;;;;;;;5.17;4.70;;;14.00;99.90;;;;;;2090522;28;20176;-76
2021/06/23 03:59:08;;;;;;;6.53;5.93;;;14.00;99.90;;;;;;2090444;28;20176;-76
2021/06/23 04:00:09;;;;;;;8.13;7.33;;;14.00;99.90;;;;;;2090468;28;20176;-76
2021/06/23 04:01:11;;;;;;;6.43;5.80;;;14.00;99.90;;;;;;2090473;28;20302;-76
2021/06/23 04:02:11;;;;;;;6.43;5.72;;;14.00;99.90;;;;;;2097926;28;20181;-76
2021/06/23 04:03:12;;;;;;;5.83;5.17;;;14.00;99.90;;;;;;2097877;28;20176;-76
2021/06/23 04:04:13;;;;;;;5.87;5.23;;;14.00;99.90;;;;;;2081641;28;20173;-76
2021/06/23 04:05:13;;;;;;;7.17;6.47;;;13.90;99.90;;;;;;2089861;28;20548;-76
2021/06/23 04:06:14;;;;;;;5.47;4.97;;;13.90;99.90;;;;;;2089864;28;20180;-76
2021/06/23 04:07:15;;;;;;;7.17;5.40;;;13.90;99.90;;;;;;2081362;28;20207;-76
2021/06/23 04:08:16;;;;;;;5.50;4.88;;;13.90;99.90;;;;;;2089844;28;20545;-76
2021/06/23 04:09:17;;;;;;;8.03;5.17;;;13.90;99.90;;;;;;2098033;28;20187;-76
2021/06/23 04:10:18;;;;;;;7.70;5.60;;;13.90;99.90;;;;;;2081586;28;20258;-76
2021/06/23 04:11:19;;;;;;;7.50;6.00;;;13.90;99.90;;;;;;2073288;28;20221;-76
2021/06/23 04:12:19;;;;;;;6.00;5.47;;;13.90;99.90;;;;;;2081435;28;20268;-76
2021/06/23 04:13:20;;;;;;;6.20;5.60;;;13.90;99.90;;;;;;2097983;28;20180;-76
2021/06/23 04:14:21;;;;;;;5.90;5.40;;;13.90;99.90;;;;;;2090476;28;20183;-76
2021/06/23 04:15:21;;;;;;;8.50;6.03;;;13.90;99.90;;;;;;2090421;28;20202;-76
2021/06/23 04:16:22;;;;;;;6.87;6.17;;;13.90;99.90;;;;;;2098071;28;20264;-76
2021/06/23 04:17:23;;;;;;;4.67;4.27;;;13.90;99.90;;;;;;2097985;28;20278;-76
2021/06/23 04:18:24;;;;;;;6.77;5.00;;;13.90;99.90;;;;;;2090334;28;20232;-76
2021/06/23 04:19:24;;;;;;;6.67;6.07;;;14.00;99.90;;;;;;2098144;28;20203;-76
2021/06/23 04:20:25;;;;;;;5.77;5.27;;;13.90;99.90;;;;;;2098169;28;20684;-76
2021/06/23 04:21:26;;;;;;;6.17;5.67;;;13.90;99.90;;;;;;2090441;28;20210;-76
2021/06/23 04:22:27;;;;;;;5.23;4.73;;;13.90;99.90;;;;;;2090287;28;20178;-76
2021/06/23 04:23:28;;;;;;;4.88;4.45;;;14.00;99.90;;;;;;2097896;28;20182;-76
2021/06/23 04:24:28;;;;;;;8.07;5.57;;;14.00;99.90;;;;;;2098075;28;20176;-76
2021/06/23 04:25:29;;;;;;;4.97;4.47;;;14.00;99.90;;;;;;2090362;28;20176;-76
2021/06/23 04:26:30;;;;;;;5.03;4.53;;;14.00;99.90;;;;;;2089739;28;20648;-76
2021/06/23 04:27:31;;;;;;;8.23;5.33;;;13.90;99.90;;;;;;2089615;28;20200;-76
2021/06/23 04:28:32;;;;;;;6.00;4.97;;;13.90;99.90;;;;;;2090202;28;20268;-76
2021/06/23 04:29:32;;;;;;;7.70;4.47;;;13.90;99.90;;;;;;2090240;28;20176;-76
2021/06/23 04:30:33;;;;;;;6.67;4.97;;;13.90;99.90;;;;;;2090139;28;20177;-76
2021/06/23 04:31:34;;;;;;;6.30;5.23;;;14.00;99.90;;;;;;2089663;28;20183;-76
2021/06/23 04:32:35;;;;;;;6.80;5.30;;;14.00;99.90;;;;;;2089337;28;20185;-76
2021/06/23 04:33:35;;;;;;;4.90;4.50;;;14.00;99.90;;;;;;2089891;28;20660;-76
2021/06/23 04:34:36;;;;;;;6.77;6.17;;;14.00;99.90;;;;;;2089781;28;20254;-76
2021/06/23 04:35:37;;;;;;;6.33;5.77;;;14.00;99.90;;;;;;2089505;28;20686;-76
2021/06/23 04:36:38;;;;;;;5.70;5.20;;;14.00;99.90;;;;;;2081277;28;20849;-76
2021/06/23 04:37:41;;;;;;;6.33;5.80;;;14.00;99.90;;;;;;2089557;28;20204;-76
2021/06/23 04:38:42;;;;;;;5.57;4.55;;;14.00;99.90;;;;;;2089409;28;20349;-76
2021/06/23 04:39:43;;;;;;;5.53;5.00;;;14.00;99.90;;;;;;2081386;28;20177;-76
2021/06/23 04:40:44;;;;;;;5.00;4.60;;;14.00;99.90;;;;;;2081299;28;20170;-76
2021/06/23 04:41:45;;;;;;;5.90;5.32;;;14.00;99.90;;;;;;2089555;28;20203;-76
2021/06/23 04:42:46;;;;;;;6.27;5.67;;;14.00;99.90;;;;;;2097512;28;20183;-76
2021/06/23 04:43:46;;;;;;;4.80;4.40;;;14.10;99.90;;;;;;2089480;28;20176;-76
2021/06/23 04:44:47;;;;;;;5.53;4.40;;;14.10;99.90;;;;;;2089427;28;20176;-76
2021/06/23 04:45:48;;;;;;;6.13;4.73;;;14.10;99.90;;;;;;2097801;28;20230;-76
2021/06/23 04:46:49;;;;;;;5.20;4.80;;;14.10;99.90;;;;;;2090087;28;20448;-76
2021/06/23 04:47:49;;;;;;;6.57;5.97;;;14.10;99.90;;;;;;2089999;28;20216;-75
2021/06/23 04:48:50;;;;;;;5.87;5.37;;;14.10;99.90;;;;;;2090087;28;20234;-75
2021/06/23 04:49:51;;;;;;;7.23;5.07;;;14.20;99.90;;;;;;2090098;28;20187;-75
2021/06/23 04:50:51;;;;;;;5.73;5.17;;;14.10;99.90;;;;;;2090076;28;20705;-75
2021/06/23 04:51:52;;;;;;;4.97;4.57;;;14.10;99.90;;;;;;2097800;28;20225;-75
2021/06/23 04:52:53;;;;;;;4.90;4.03;;;14.20;99.90;;;;;;2097462;28;20600;-75
2021/06/23 04:53:54;;;;;;;5.60;5.10;;;14.20;99.90;;;;;;2089316;28;20176;-75
2021/06/23 04:54:54;;;;;;;6.32;5.72;;;14.20;99.90;;;;;;2089388;28;20211;-75
2021/06/23 04:55:57;;;;;;;6.80;6.20;;;14.10;99.90;;;;;;2089364;28;20177;-75
2021/06/23 04:56:57;;;;;;;5.00;4.50;;;14.10;99.90;;;;;;2090125;28;20703;-75
2021/06/23 04:57:58;;;;;;;6.63;5.50;;;14.00;99.90;;;;;;2089386;28;20204;-75
2021/06/23 04:59:00;;;;;;;6.57;5.93;;;14.10;99.90;;;;;;2089519;28;20218;-75
2021/06/23 05:00:03;;;;;;;5.82;4.60;;;14.00;99.90;;;;;;2090143;28;20199;-74
2021/06/23 05:01:03;;;;;;;5.20;4.50;;;14.10;99.90;;;;;;2089514;28;20180;-74
2021/06/23 05:02:04;;;;;;;5.17;4.73;;;14.10;99.90;;;;;;2097793;28;20176;-74
2021/06/23 05:03:05;;;;;;;5.93;5.33;;;14.10;99.90;;;;;;2089179;28;20180;-74
2021/06/23 05:04:05;;;;;;;5.40;4.90;;;14.10;99.90;;;;;;2089940;28;20180;-75
2021/06/23 05:05:07;;;;;;;5.90;4.87;;;14.20;99.90;;;;;;2089959;28;20255;-74
2021/06/23 05:06:08;;;;;;;4.95;4.40;;;14.20;99.90;;;;;;2089833;28;20311;-74
2021/06/23 05:07:09;;;;;;;4.90;4.50;;;14.20;99.90;;;;;;2089869;28;20180;-74
2021/06/23 05:08:09;;;;;;;6.07;5.47;;;14.30;99.90;;;;;;2089980;28;20177;-74
2021/06/23 05:09:10;;;;;;;5.80;5.23;;;14.30;99.90;;;;;;2089897;28;20208;-74
2021/06/23 05:10:11;;;;;;;5.53;5.00;;;14.30;99.90;;;;;;2089917;28;20789;-74
2021/06/23 05:11:12;;;;;;;6.33;5.53;;;14.30;99.90;;;;;;2097550;28;20182;-74
2021/06/23 05:12:14;;;;;;;6.67;6.07;;;14.40;99.90;;;;;;2097276;28;20176;-74
2021/06/23 05:13:14;;;;;;;6.82;5.90;;;14.40;99.90;;;;;;2089221;28;20183;-75
2021/06/23 05:14:15;;;;;;;7.40;6.70;;;14.40;99.90;;;;;;2097540;28;20652;-74
2021/06/23 05:15:16;;;;;;;7.10;6.37;;;14.30;99.90;;;;;;2090578;28;20187;-75
2021/06/23 05:16:17;;;;;;;5.53;5.03;;;14.30;99.90;;;;;;2082048;28;20207;-75
2021/06/23 05:17:18;;;;;;;6.17;5.57;;;14.20;99.90;;;;;;2089151;28;20298;-75
2021/06/23 05:18:18;;;;;;;7.83;5.73;;;14.20;99.90;;;;;;2097398;28;20293;-75
2021/06/23 05:19:20;;;;;;;6.13;5.60;;;14.30;99.90;;;;;;2097589;28;20182;-75
2021/06/23 05:20:22;;;;;;;6.03;5.47;;;14.30;99.90;;;;;;2089177;28;20192;-75
2021/06/23 05:21:22;;;;;;;6.60;6.00;;;14.30;99.90;;;;;;2089266;28;20179;-75
2021/06/23 05:22:23;;;;;;;5.03;4.53;;;14.40;99.90;;;;;;2088770;28;20238;-75
2021/06/23 05:23:24;;;;;;;8.63;5.83;;;14.40;99.90;;;;;;2081003;28;20542;-75
2021/06/23 05:24:25;;;;;;;6.15;5.53;;;14.40;99.90;;;;;;2089170;28;20239;-75